sensor_id;sensor_type;location;lat;lon;timestamp;pressure;altitude;pressure_sealevel;temperature;humidity
61037;BME280;57313;47.040;15.498;2022-10-31T00:01:59;97435.31;;;9.31;100.00
61037;BME280;57313;47.040;15.498;2022-10-31T00:04:27;97436.16;;;9.31;100.00
61037;BME280;57313;47.040;15.498;2022-10-31T00:06:54;97434.47;;;9.30;100.00
61037;BME280;57313;47.040;15.498;2022-10-31T00:09:22;97448.22;;;9.32;100.00
61037;BME280;57313;47.040;15.498;2022-10-31T00:11:49;97430.38;;;9.26;100.00
61037;BME280;57313;47.040;15.498;2022-10-31T00:14:16;97431.38;;;9.24;100.00
61037;BME280;57313;47.040;15.498;2022-10-31T00:16:44;97431.59;;;9.19;100.00
61037;BME280;57313;47.040;15.498;2022-10-31T00:19:13;97431.75;;;9.16;100.00
61037;BME280;57313;47.040;15.498;2022-10-31T00:21:40;97430.25;;;9.12;100.00
61037;BME280;57313;47.040;15.498;2022-10-31T00:24:08;97422.59;;;9.09;100.00
61037;BME280;57313;47.040;15.498;2022-10-31T00:26:35;97431.34;;;9.08;100.00
61037;BME280;57313;47.040;15.498;2022-10-31T00:29:02;97431.34;;;9.08;100.00
61037;BME280;57313;47.040;15.498;2022-10-31T00:31:30;97430.47;;;9.07;100.00
61037;BME280;57313;47.040;15.498;2022-10-31T00:33:57;97431.34;;;9.08;100.00
61037;BME280;57313;47.040;15.498;2022-10-31T00:36:26;97432.16;;;9.08;100.00
61037;BME280;57313;47.040;15.498;2022-10-31T00:38:53;97429.66;;;9.07;100.00
61037;BME280;57313;47.040;15.498;2022-10-31T00:41:21;97431.66;;;9.02;100.00
61037;BME280;57313;47.040;15.498;2022-10-31T00:43:48;97421.44;;;8.98;100.00
61037;BME280;57313;47.040;15.498;2022-10-31T00:46:15;97428.47;;;8.96;100.00
61037;BME280;57313;47.040;15.498;2022-10-31T00:48:43;97421.66;;;8.94;100.00
61037;BME280;57313;47.040;15.498;2022-10-31T00:51:10;97423.53;;;8.92;100.00
61037;BME280;57313;47.040;15.498;2022-10-31T00:53:39;97425.34;;;8.90;100.00
61037;BME280;57313;47.040;15.498;2022-10-31T00:56:07;97423.69;;;8.89;100.00
61037;BME280;57313;47.040;15.498;2022-10-31T00:58:34;97419.38;;;8.88;100.00
61037;BME280;57313;47.040;15.498;2022-10-31T01:01:01;97416.13;;;8.84;100.00
61037;BME280;57313;47.040;15.498;2022-10-31T01:03:31;97422.16;;;8.85;100.00
61037;BME280;57313;47.040;15.498;2022-10-31T01:06:02;97418.09;;;8.79;100.00
61037;BME280;57313;47.040;15.498;2022-10-31T01:08:30;97419.03;;;8.78;100.00
61037;BME280;57313;47.040;15.498;2022-10-31T01:11:01;97413.94;;;8.76;100.00
61037;BME280;57313;47.040;15.498;2022-10-31T01:13:29;97418.19;;;8.77;100.00
61037;BME280;57313;47.040;15.498;2022-10-31T01:15:57;97412.22;;;8.75;100.00
61037;BME280;57313;47.040;15.498;2022-10-31T01:18:25;97414.00;;;8.75;100.00
61037;BME280;57313;47.040;15.498;2022-10-31T01:21:00;97410.69;;;8.71;100.00
61037;BME280;57313;47.040;15.498;2022-10-31T01:23:27;97402.16;;;8.69;100.00
61037;BME280;57313;47.040;15.498;2022-10-31T01:26:06;97397.22;;;8.65;100.00
61037;BME280;57313;47.040;15.498;2022-10-31T01:28:35;97402.47;;;8.63;100.00
61037;BME280;57313;47.040;15.498;2022-10-31T01:31:05;97400.94;;;8.59;100.00
61037;BME280;57313;47.040;15.498;2022-10-31T01:33:33;97400.19;;;8.57;100.00
61037;BME280;57313;47.040;15.498;2022-10-31T01:36:01;97396.94;;;8.53;100.00
61037;BME280;57313;47.040;15.498;2022-10-31T01:38:28;97395.25;;;8.52;100.00
61037;BME280;57313;47.040;15.498;2022-10-31T01:40:55;97391.88;;;8.50;100.00
61037;BME280;57313;47.040;15.498;2022-10-31T01:43:48;97392.72;;;8.51;100.00
61037;BME280;57313;47.040;15.498;2022-10-31T01:46:19;97395.31;;;8.51;100.00
61037;BME280;57313;47.040;15.498;2022-10-31T01:48:48;97403.25;;;8.48;100.00
61037;BME280;57313;47.040;15.498;2022-10-31T01:51:17;97386.94;;;8.46;100.00
61037;BME280;57313;47.040;15.498;2022-10-31T01:53:47;97388.78;;;8.42;100.00
61037;BME280;57313;47.040;15.498;2022-10-31T01:56:16;97387.13;;;8.41;100.00
61037;BME280;57313;47.040;15.498;2022-10-31T01:58:47;97383.59;;;8.42;100.00
61037;BME280;57313;47.040;15.498;2022-10-31T02:01:15;97390.47;;;8.43;100.00
61037;BME280;57313;47.040;15.498;2022-10-31T02:03:44;97377.66;;;8.40;100.00
61037;BME280;57313;47.040;15.498;2022-10-31T02:06:19;97371.88;;;8.35;100.00
61037;BME280;57313;47.040;15.498;2022-10-31T02:08:48;97375.38;;;8.34;100.00
61037;BME280;57313;47.040;15.498;2022-10-31T02:11:16;97370.41;;;8.29;100.00
61037;BME280;57313;47.040;15.498;2022-10-31T02:13:43;97356.78;;;8.25;100.00
61037;BME280;57313;47.040;15.498;2022-10-31T02:16:12;97360.28;;;8.24;100.00
61037;BME280;57313;47.040;15.498;2022-10-31T02:18:39;97362.09;;;8.22;100.00
61037;BME280;57313;47.040;15.498;2022-10-31T02:21:13;97359.44;;;8.24;100.00
61037;BME280;57313;47.040;15.498;2022-10-31T02:26:58;97360.34;;;8.23;100.00
61037;BME280;57313;47.040;15.498;2022-10-31T02:29:50;97364.84;;;8.19;100.00
61037;BME280;57313;47.040;15.498;2022-10-31T02:32:27;97363.25;;;8.17;100.00
61037;BME280;57313;47.040;15.498;2022-10-31T02:35:03;97361.09;;;8.07;100.00
61037;BME280;57313;47.040;15.498;2022-10-31T02:37:37;97358.50;;;8.07;100.00
61037;BME280;57313;47.040;15.498;2022-10-31T02:40:13;97366.44;;;8.04;100.00
61037;BME280;57313;47.040;15.498;2022-10-31T02:42:47;97361.41;;;8.01;100.00
61037;BME280;57313;47.040;15.498;2022-10-31T02:45:22;97379.50;;;8.03;100.00
61037;BME280;57313;47.040;15.498;2022-10-31T02:48:00;97359.81;;;7.99;100.00
61037;BME280;57313;47.040;15.498;2022-10-31T02:50:31;97377.03;;;8.00;100.00
61037;BME280;57313;47.040;15.498;2022-10-31T02:53:01;97368.66;;;7.95;100.00
61037;BME280;57313;47.040;15.498;2022-10-31T02:55:53;97368.97;;;7.88;100.00
61037;BME280;57313;47.040;15.498;2022-10-31T02:58:25;97366.44;;;7.87;100.00
61037;BME280;57313;47.040;15.498;2022-10-31T03:01:04;97370.88;;;7.85;100.00
61037;BME280;57313;47.040;15.498;2022-10-31T03:03:42;97369.94;;;7.86;100.00
61037;BME280;57313;47.040;15.498;2022-10-31T03:06:17;97365.53;;;7.88;100.00
61037;BME280;57313;47.040;15.498;2022-10-31T03:08:54;97370.66;;;7.89;100.00
61037;BME280;57313;47.040;15.498;2022-10-31T03:11:31;97366.28;;;7.90;100.00
61037;BME280;57313;47.040;15.498;2022-10-31T03:14:05;97376.00;;;7.86;100.00
61037;BME280;57313;47.040;15.498;2022-10-31T03:16:41;97375.84;;;7.89;100.00
61037;BME280;57313;47.040;15.498;2022-10-31T03:19:18;97367.34;;;7.86;100.00
61037;BME280;57313;47.040;15.498;2022-10-31T03:21:49;97367.44;;;7.84;100.00
61037;BME280;57313;47.040;15.498;2022-10-31T03:24:20;97374.59;;;7.79;100.00
61037;BME280;57313;47.040;15.498;2022-10-31T03:26:53;97371.25;;;7.77;100.00
61037;BME280;57313;47.040;15.498;2022-10-31T03:29:25;97376.50;;;7.76;100.00
61037;BME280;57313;47.040;15.498;2022-10-31T03:31:57;97366.28;;;7.72;100.00
61037;BME280;57313;47.040;15.498;2022-10-31T03:34:28;97375.03;;;7.70;100.00
61037;BME280;57313;47.040;15.498;2022-10-31T03:37:00;97385.41;;;7.70;100.00
61037;BME280;57313;47.040;15.498;2022-10-31T03:39:30;97368.31;;;7.66;100.00
61037;BME280;57313;47.040;15.498;2022-10-31T03:42:03;97375.25;;;7.65;100.00
61037;BME280;57313;47.040;15.498;2022-10-31T03:44:33;97366.66;;;7.65;100.00
61037;BME280;57313;47.040;15.498;2022-10-31T03:47:02;97383.09;;;7.64;100.00
61037;BME280;57313;47.040;15.498;2022-10-31T03:49:33;97364.97;;;7.64;100.00
61037;BME280;57313;47.040;15.498;2022-10-31T03:52:07;97372.75;;;7.64;100.00
61037;BME280;57313;47.040;15.498;2022-10-31T03:54:42;97372.81;;;7.62;100.00
61037;BME280;57313;47.040;15.498;2022-10-31T03:57:16;97374.78;;;7.57;100.00
61037;BME280;57313;47.040;15.498;2022-10-31T03:59:53;97383.63;;;7.53;100.00
61037;BME280;57313;47.040;15.498;2022-10-31T04:02:27;97380.19;;;7.52;100.00
61037;BME280;57313;47.040;15.498;2022-10-31T04:04:58;97382.03;;;7.50;100.00
61037;BME280;57313;47.040;15.498;2022-10-31T04:07:30;97381.84;;;7.53;100.00
61037;BME280;57313;47.040;15.498;2022-10-31T04:10:02;97385.53;;;7.49;100.00
61037;BME280;57313;47.040;15.498;2022-10-31T04:12:32;97375.97;;;7.50;100.00
61037;BME280;57313;47.040;15.498;2022-10-31T04:15:03;97379.56;;;7.47;100.00
61037;BME280;57313;47.040;15.498;2022-10-31T04:17:34;97384.91;;;7.44;100.00
61037;BME280;57313;47.040;15.498;2022-10-31T04:20:06;97378.72;;;7.47;100.00
61037;BME280;57313;47.040;15.498;2022-10-31T04:22:33;97380.41;;;7.48;100.00
61037;BME280;57313;47.040;15.498;2022-10-31T04:25:01;97383.06;;;7.46;100.00
61037;BME280;57313;47.040;15.498;2022-10-31T04:27:28;97384.03;;;7.44;100.00
61037;BME280;57313;47.040;15.498;2022-10-31T04:29:55;97384.13;;;7.42;100.00
61037;BME280;57313;47.040;15.498;2022-10-31T04:32:22;97381.38;;;7.45;100.00
61037;BME280;57313;47.040;15.498;2022-10-31T04:34:50;97379.72;;;7.44;100.00
61037;BME280;57313;47.040;15.498;2022-10-31T04:37:19;97382.94;;;7.49;100.00
61037;BME280;57313;47.040;15.498;2022-10-31T04:39:46;97377.88;;;7.46;100.00
61037;BME280;57313;47.040;15.498;2022-10-31T04:42:13;97378.84;;;7.44;100.00
61037;BME280;57313;47.040;15.498;2022-10-31T04:44:40;97375.66;;;7.39;100.00
61037;BME280;57313;47.040;15.498;2022-10-31T04:47:07;97374.91;;;7.36;100.00
61037;BME280;57313;47.040;15.498;2022-10-31T04:49:35;97377.63;;;7.33;100.00
61037;BME280;57313;47.040;15.498;2022-10-31T04:52:02;97371.72;;;7.30;100.00
61037;BME280;57313;47.040;15.498;2022-10-31T04:54:31;97379.50;;;7.30;100.00
61037;BME280;57313;47.040;15.498;2022-10-31T04:56:58;97372.66;;;7.29;100.00
61037;BME280;57313;47.040;15.498;2022-10-31T04:59:25;97381.25;;;7.29;100.00
61037;BME280;57313;47.040;15.498;2022-10-31T05:01:52;97381.47;;;7.25;100.00
61037;BME280;57313;47.040;15.498;2022-10-31T05:04:20;97378.13;;;7.23;100.00
61037;BME280;57313;47.040;15.498;2022-10-31T05:06:47;97377.41;;;7.19;100.00
61037;BME280;57313;47.040;15.498;2022-10-31T05:09:14;97379.16;;;7.18;100.00
61037;BME280;57313;47.040;15.498;2022-10-31T05:11:43;97378.19;;;7.21;100.00
61037;BME280;57313;47.040;15.498;2022-10-31T05:14:11;97383.50;;;7.18;100.00
61037;BME280;57313;47.040;15.498;2022-10-31T05:16:38;97381.00;;;7.16;100.00
61037;BME280;57313;47.040;15.498;2022-10-31T05:19:06;97382.66;;;7.17;100.00
61037;BME280;57313;47.040;15.498;2022-10-31T05:21:33;97379.31;;;7.15;100.00
61037;BME280;57313;47.040;15.498;2022-10-31T05:24:00;97375.94;;;7.13;100.00
61037;BME280;57313;47.040;15.498;2022-10-31T05:26:28;97389.88;;;7.11;100.00
61037;BME280;57313;47.040;15.498;2022-10-31T05:28:57;97392.47;;;7.11;100.00
61037;BME280;57313;47.040;15.498;2022-10-31T05:31:25;97389.81;;;7.12;100.00
61037;BME280;57313;47.040;15.498;2022-10-31T05:33:53;97388.03;;;7.13;100.00
61037;BME280;57313;47.040;15.498;2022-10-31T05:36:20;97372.63;;;7.10;100.00
61037;BME280;57313;47.040;15.498;2022-10-31T05:38:47;97373.50;;;7.10;100.00
61037;BME280;57313;47.040;15.498;2022-10-31T05:41:15;97380.34;;;7.11;100.00
61037;BME280;57313;47.040;15.498;2022-10-31T05:43:42;97392.53;;;7.09;100.00
61037;BME280;57313;47.040;15.498;2022-10-31T05:46:12;97391.91;;;7.04;100.00
61037;BME280;57313;47.040;15.498;2022-10-31T05:48:39;97378.97;;;7.04;100.00
61037;BME280;57313;47.040;15.498;2022-10-31T05:51:07;97383.22;;;7.05;100.00
61037;BME280;57313;47.040;15.498;2022-10-31T05:53:35;97384.97;;;7.05;100.00
61037;BME280;57313;47.040;15.498;2022-10-31T05:56:03;97383.06;;;7.08;100.00
61037;BME280;57313;47.040;15.498;2022-10-31T05:58:31;97395.25;;;7.06;100.00
61037;BME280;57313;47.040;15.498;2022-10-31T06:00:59;97395.94;;;7.10;100.00
61037;BME280;57313;47.040;15.498;2022-10-31T06:03:29;97395.88;;;7.11;100.00
61037;BME280;57313;47.040;15.498;2022-10-31T06:05:57;97400.09;;;7.14;100.00
61037;BME280;57313;47.040;15.498;2022-10-31T06:08:24;97401.78;;;7.15;100.00
61037;BME280;57313;47.040;15.498;2022-10-31T06:10:52;97405.97;;;7.17;100.00
61037;BME280;57313;47.040;15.498;2022-10-31T06:13:19;97405.91;;;7.19;100.00
61037;BME280;57313;47.040;15.498;2022-10-31T06:15:47;97404.22;;;7.18;100.00
61037;BME280;57313;47.040;15.498;2022-10-31T06:18:14;97406.91;;;7.16;100.00
61037;BME280;57313;47.040;15.498;2022-10-31T06:20:43;97402.53;;;7.17;100.00
61037;BME280;57313;47.040;15.498;2022-10-31T06:23:11;97405.97;;;7.17;100.00
61037;BME280;57313;47.040;15.498;2022-10-31T06:25:38;97403.31;;;7.19;100.00
61037;BME280;57313;47.040;15.498;2022-10-31T06:28:06;97407.50;;;7.22;100.00
61037;BME280;57313;47.040;15.498;2022-10-31T06:30:34;97412.63;;;7.23;100.00
61037;BME280;57313;47.040;15.498;2022-10-31T06:33:02;97409.81;;;7.28;100.00
61037;BME280;57313;47.040;15.498;2022-10-31T06:35:29;97417.25;;;7.35;100.00
61037;BME280;57313;47.040;15.498;2022-10-31T06:37:58;97416.22;;;7.40;100.00
61037;BME280;57313;47.040;15.498;2022-10-31T06:40:27;97418.59;;;7.44;100.00
61037;BME280;57313;47.040;15.498;2022-10-31T06:42:58;97425.16;;;7.51;100.00
61037;BME280;57313;47.040;15.498;2022-10-31T06:45:26;97429.28;;;7.55;100.00
61037;BME280;57313;47.040;15.498;2022-10-31T06:47:54;97435.09;;;7.61;100.00
61037;BME280;57313;47.040;15.498;2022-10-31T06:50:42;97432.13;;;7.68;100.00
61037;BME280;57313;47.040;15.498;2022-10-31T06:53:12;97431.03;;;7.74;100.00
61037;BME280;57313;47.040;15.498;2022-10-31T06:55:40;97439.34;;;7.81;100.00
61037;BME280;57313;47.040;15.498;2022-10-31T06:58:09;97438.75;;;7.93;100.00
61037;BME280;57313;47.040;15.498;2022-10-31T07:00:37;97439.22;;;8.01;100.00
61037;BME280;57313;47.040;15.498;2022-10-31T07:03:07;97445.66;;;8.12;100.00
61037;BME280;57313;47.040;15.498;2022-10-31T07:05:37;97457.50;;;8.17;100.00
61037;BME280;57313;47.040;15.498;2022-10-31T07:08:06;97450.25;;;8.24;100.00
61037;BME280;57313;47.040;15.498;2022-10-31T07:10:36;97453.44;;;8.29;100.00
61037;BME280;57313;47.040;15.498;2022-10-31T07:13:10;97467.50;;;8.42;100.00
61037;BME280;57313;47.040;15.498;2022-10-31T07:15:40;97469.69;;;8.52;100.00
61037;BME280;57313;47.040;15.498;2022-10-31T07:18:10;97472.66;;;8.61;100.00
61037;BME280;57313;47.040;15.498;2022-10-31T07:20:37;97466.09;;;8.72;100.00
61037;BME280;57313;47.040;15.498;2022-10-31T07:23:05;97476.00;;;8.81;100.00
61037;BME280;57313;47.040;15.498;2022-10-31T07:25:35;97478.22;;;8.89;100.00
61037;BME280;57313;47.040;15.498;2022-10-31T07:28:04;97480.19;;;9.01;100.00
61037;BME280;57313;47.040;15.498;2022-10-31T07:30:32;97479.84;;;9.07;100.00
61037;BME280;57313;47.040;15.498;2022-10-31T07:33:01;97478.53;;;9.16;100.00
61037;BME280;57313;47.040;15.498;2022-10-31T07:35:29;97481.56;;;9.24;100.00
61037;BME280;57313;47.040;15.498;2022-10-31T07:37:57;97480.34;;;9.31;100.00
61037;BME280;57313;47.040;15.498;2022-10-31T07:40:26;97478.06;;;9.41;100.00
61037;BME280;57313;47.040;15.498;2022-10-31T07:42:57;97483.91;;;9.46;100.00
61037;BME280;57313;47.040;15.498;2022-10-31T07:45:25;97482.63;;;9.53;100.00
61037;BME280;57313;47.040;15.498;2022-10-31T07:47:53;97481.31;;;9.62;100.00
61037;BME280;57313;47.040;15.498;2022-10-31T07:50:23;97470.56;;;9.68;100.00
61037;BME280;57313;47.040;15.498;2022-10-31T07:52:58;97480.47;;;9.78;100.00
61037;BME280;57313;47.040;15.498;2022-10-31T07:55:27;97484.41;;;9.85;100.00
61037;BME280;57313;47.040;15.498;2022-10-31T07:57:59;97479.88;;;9.88;100.00
61037;BME280;57313;47.040;15.498;2022-10-31T08:00:29;97475.16;;;9.95;100.00
61037;BME280;57313;47.040;15.498;2022-10-31T08:02:58;97478.09;;;10.05;100.00
61037;BME280;57313;47.040;15.498;2022-10-31T08:05:26;97481.28;;;10.10;100.00
61037;BME280;57313;47.040;15.498;2022-10-31T08:07:54;97477.31;;;10.19;100.00
61037;BME280;57313;47.040;15.498;2022-10-31T08:10:23;97488.06;;;10.29;100.00
61037;BME280;57313;47.040;15.498;2022-10-31T08:12:55;97479.69;;;10.39;100.00
61037;BME280;57313;47.040;15.498;2022-10-31T08:15:26;97484.28;;;10.50;100.00
61037;BME280;57313;47.040;15.498;2022-10-31T08:17:54;97488.84;;;10.61;100.00
61037;BME280;57313;47.040;15.498;2022-10-31T08:20:22;97488.97;;;10.74;100.00
61037;BME280;57313;47.040;15.498;2022-10-31T08:22:57;97479.59;;;10.86;100.00
61037;BME280;57313;47.040;15.498;2022-10-31T08:25:26;97483.44;;;10.94;100.00
61037;BME280;57313;47.040;15.498;2022-10-31T08:27:59;97484.41;;;11.08;100.00
61037;BME280;57313;47.040;15.498;2022-10-31T08:30:31;97479.28;;;11.21;100.00
61037;BME280;57313;47.040;15.498;2022-10-31T08:33:00;97479.44;;;11.32;100.00
61037;BME280;57313;47.040;15.498;2022-10-31T08:35:28;97463.34;;;11.40;100.00
61037;BME280;57313;47.040;15.498;2022-10-31T08:37:57;97467.97;;;11.49;100.00
61037;BME280;57313;47.040;15.498;2022-10-31T08:40:26;97470.84;;;11.59;100.00
61037;BME280;57313;47.040;15.498;2022-10-31T08:42:58;97462.34;;;11.70;100.00
61037;BME280;57313;47.040;15.498;2022-10-31T08:45:26;97471.28;;;11.80;100.00
61037;BME280;57313;47.040;15.498;2022-10-31T08:47:58;97463.81;;;11.88;100.00
61037;BME280;57313;47.040;15.498;2022-10-31T08:50:27;97465.03;;;11.97;100.00
61037;BME280;57313;47.040;15.498;2022-10-31T08:52:59;97465.19;;;12.08;100.00
61037;BME280;57313;47.040;15.498;2022-10-31T08:55:33;97455.06;;;12.16;100.00
61037;BME280;57313;47.040;15.498;2022-10-31T08:58:02;97470.16;;;12.26;100.00
61037;BME280;57313;47.040;15.498;2022-10-31T09:00:30;97463.78;;;12.30;100.00
61037;BME280;57313;47.040;15.498;2022-10-31T09:03:02;97458.91;;;12.38;100.00
61037;BME280;57313;47.040;15.498;2022-10-31T09:05:30;97464.78;;;12.42;100.00
61037;BME280;57313;47.040;15.498;2022-10-31T09:07:59;97470.44;;;12.48;100.00
61037;BME280;57313;47.040;15.498;2022-10-31T09:10:28;97462.41;;;12.51;100.00
61037;BME280;57313;47.040;15.498;2022-10-31T09:12:56;97469.00;;;12.57;100.00
61037;BME280;57313;47.040;15.498;2022-10-31T09:15:24;97460.19;;;12.58;100.00
61037;BME280;57313;47.040;15.498;2022-10-31T09:17:52;97466.91;;;12.62;100.00
61037;BME280;57313;47.040;15.498;2022-10-31T09:20:22;97466.41;;;12.70;100.00
61037;BME280;57313;47.040;15.498;2022-10-31T09:22:56;97461.59;;;12.77;100.00
61037;BME280;57313;47.040;15.498;2022-10-31T09:25:24;97465.56;;;12.82;100.00
61037;BME280;57313;47.040;15.498;2022-10-31T09:27:55;97459.94;;;12.88;100.00
61037;BME280;57313;47.040;15.498;2022-10-31T09:30:23;97462.97;;;12.95;100.00
61037;BME280;57313;47.040;15.498;2022-10-31T09:32:55;97459.31;;;12.98;100.00
61037;BME280;57313;47.040;15.498;2022-10-31T09:35:24;97461.41;;;13.05;100.00
61037;BME280;57313;47.040;15.498;2022-10-31T09:37:55;97460.25;;;13.09;100.00
61037;BME280;57313;47.040;15.498;2022-10-31T09:40:27;97455.13;;;13.21;100.00
61037;BME280;57313;47.040;15.498;2022-10-31T09:43:05;97460.38;;;13.34;100.00
61037;BME280;57313;47.040;15.498;2022-10-31T09:45:39;97462.13;;;13.46;100.00
61037;BME280;57313;47.040;15.498;2022-10-31T09:48:25;97459.31;;;13.49;100.00
61037;BME280;57313;47.040;15.498;2022-10-31T09:50:59;97455.75;;;13.50;100.00
61037;BME280;57313;47.040;15.498;2022-10-31T09:53:33;97451.63;;;13.59;100.00
61037;BME280;57313;47.040;15.498;2022-10-31T09:56:06;97454.75;;;13.77;100.00
61037;BME280;57313;47.040;15.498;2022-10-31T09:58:41;97453.56;;;13.81;100.00
61037;BME280;57313;47.040;15.498;2022-10-31T10:04:05;97456.91;;;14.07;100.00
61037;BME280;57313;47.040;15.498;2022-10-31T10:06:48;97450.31;;;14.14;100.00
61037;BME280;57313;47.040;15.498;2022-10-31T10:09:16;97452.59;;;14.19;100.00
61037;BME280;57313;47.040;15.498;2022-10-31T10:11:54;97449.50;;;14.25;100.00
61037;BME280;57313;47.040;15.498;2022-10-31T10:14:36;97445.38;;;14.34;100.00
61037;BME280;57313;47.040;15.498;2022-10-31T10:17:17;97443.97;;;14.41;100.00
61037;BME280;57313;47.040;15.498;2022-10-31T10:20:10;97445.19;;;14.48;100.00
61037;BME280;57313;47.040;15.498;2022-10-31T10:22:54;97454.59;;;14.51;100.00
61037;BME280;57313;47.040;15.498;2022-10-31T10:25:30;97447.13;;;14.58;100.00
61037;BME280;57313;47.040;15.498;2022-10-31T10:28:10;97433.72;;;14.62;100.00
61037;BME280;57313;47.040;15.498;2022-10-31T10:30:42;97437.41;;;14.71;100.00
61037;BME280;57313;47.040;15.498;2022-10-31T10:33:16;97435.91;;;14.80;100.00
61037;BME280;57313;47.040;15.498;2022-10-31T10:35:47;97430.66;;;14.91;100.00
61037;BME280;57313;47.040;15.498;2022-10-31T10:38:22;97425.91;;;14.96;100.00
61037;BME280;57313;47.040;15.498;2022-10-31T10:40:51;97430.56;;;15.04;100.00
61037;BME280;57313;47.040;15.498;2022-10-31T10:43:23;97424.94;;;15.08;100.00
61037;BME280;57313;47.040;15.498;2022-10-31T10:46:05;97420.56;;;15.09;100.00
61037;BME280;57313;47.040;15.498;2022-10-31T10:48:42;97414.59;;;15.18;100.00
61037;BME280;57313;47.040;15.498;2022-10-31T10:51:22;97411.13;;;15.18;100.00
61037;BME280;57313;47.040;15.498;2022-10-31T10:54:39;97414.00;;;15.26;100.00
61037;BME280;57313;47.040;15.498;2022-10-31T10:57:18;97416.16;;;15.32;100.00
61037;BME280;57313;47.040;15.498;2022-10-31T10:59:48;97411.13;;;15.40;100.00
61037;BME280;57313;47.040;15.498;2022-10-31T11:02:18;97404.09;;;15.52;100.00
61037;BME280;57313;47.040;15.498;2022-10-31T11:04:50;97408.59;;;15.61;100.00
61037;BME280;57313;47.040;15.498;2022-10-31T11:07:18;97406.06;;;15.71;100.00
61037;BME280;57313;47.040;15.498;2022-10-31T11:09:47;97396.16;;;15.75;100.00
61037;BME280;57313;47.040;15.498;2022-10-31T11:12:20;97396.66;;;15.80;100.00
61037;BME280;57313;47.040;15.498;2022-10-31T11:14:51;97392.31;;;15.90;100.00
61037;BME280;57313;47.040;15.498;2022-10-31T11:17:26;97382.88;;;15.99;100.00
61037;BME280;57313;47.040;15.498;2022-10-31T11:20:03;97396.91;;;16.09;100.00
61037;BME280;57313;47.040;15.498;2022-10-31T11:22:32;97393.66;;;16.17;100.00
61037;BME280;57313;47.040;15.498;2022-10-31T11:25:11;97389.94;;;16.20;100.00
61037;BME280;57313;47.040;15.498;2022-10-31T11:27:47;97395.19;;;16.20;100.00
61037;BME280;57313;47.040;15.498;2022-10-31T11:30:25;97393.88;;;16.25;100.00
61037;BME280;57313;47.040;15.498;2022-10-31T11:32:53;97392.31;;;16.23;100.00
61037;BME280;57313;47.040;15.498;2022-10-31T11:35:22;97392.63;;;16.29;100.00
61037;BME280;57313;47.040;15.498;2022-10-31T11:37:53;97377.09;;;16.38;100.00
61037;BME280;57313;47.040;15.498;2022-10-31T11:40:25;97372.16;;;16.44;100.00
61037;BME280;57313;47.040;15.498;2022-10-31T11:42:56;97376.63;;;16.54;100.00
61037;BME280;57313;47.040;15.498;2022-10-31T11:45:31;97379.97;;;16.56;100.00
61037;BME280;57313;47.040;15.498;2022-10-31T11:48:00;97374.44;;;16.59;100.00
61037;BME280;57313;47.040;15.498;2022-10-31T11:50:34;97369.63;;;16.64;100.00
61037;BME280;57313;47.040;15.498;2022-10-31T11:53:03;97370.78;;;16.71;100.00
61037;BME280;57313;47.040;15.498;2022-10-31T11:55:35;97370.13;;;16.79;100.00
61037;BME280;57313;47.040;15.498;2022-10-31T11:58:04;97368.78;;;16.84;100.00
61037;BME280;57313;47.040;15.498;2022-10-31T12:00:33;97357.91;;;16.89;100.00
61037;BME280;57313;47.040;15.498;2022-10-31T12:03:15;97356.91;;;16.90;100.00
61037;BME280;57313;47.040;15.498;2022-10-31T12:05:51;97355.13;;;16.91;100.00
61037;BME280;57313;47.040;15.498;2022-10-31T12:08:21;97360.28;;;16.92;100.00
61037;BME280;57313;47.040;15.498;2022-10-31T12:10:58;97352.38;;;16.92;100.00
61037;BME280;57313;47.040;15.498;2022-10-31T12:13:32;97350.19;;;16.97;100.00
61037;BME280;57313;47.040;15.498;2022-10-31T12:16:08;97351.19;;;17.06;100.00
61037;BME280;57313;47.040;15.498;2022-10-31T12:18:50;97349.13;;;17.19;100.00
61037;BME280;57313;47.040;15.498;2022-10-31T12:21:37;97353.19;;;17.23;100.00
61037;BME280;57313;47.040;15.498;2022-10-31T12:24:16;97346.09;;;17.24;100.00
61037;BME280;57313;47.040;15.498;2022-10-31T12:26:57;97341.25;;;17.19;100.00
61037;BME280;57313;47.040;15.498;2022-10-31T12:29:41;97340.28;;;17.20;100.00
61037;BME280;57313;47.040;15.498;2022-10-31T12:32:23;97345.28;;;17.23;100.00
61037;BME280;57313;47.040;15.498;2022-10-31T12:35:05;97345.16;;;17.35;100.00
61037;BME280;57313;47.040;15.498;2022-10-31T12:37:49;97328.84;;;17.41;100.00
61037;BME280;57313;47.040;15.498;2022-10-31T12:40:35;97332.28;;;17.41;100.00
61037;BME280;57313;47.040;15.498;2022-10-31T12:43:20;97326.19;;;17.41;100.00
61037;BME280;57313;47.040;15.498;2022-10-31T12:45:53;97335.47;;;17.35;100.00
61037;BME280;57313;47.040;15.498;2022-10-31T12:48:42;97334.91;;;17.32;100.00
61037;BME280;57313;47.040;15.498;2022-10-31T12:51:18;97327.56;;;17.35;100.00
61037;BME280;57313;47.040;15.498;2022-10-31T12:54:10;97325.94;;;17.44;100.00
61037;BME280;57313;47.040;15.498;2022-10-31T12:56:48;97328.31;;;17.57;96.95
61037;BME280;57313;47.040;15.498;2022-10-31T12:59:26;97321.41;;;17.66;100.00
61037;BME280;57313;47.040;15.498;2022-10-31T13:01:59;97323.06;;;17.67;99.35
61037;BME280;57313;47.040;15.498;2022-10-31T13:04:37;97329.56;;;17.63;98.75
61037;BME280;57313;47.040;15.498;2022-10-31T13:07:11;97317.66;;;17.68;98.74
61037;BME280;57313;47.040;15.498;2022-10-31T13:09:42;97317.81;;;17.67;99.76
61037;BME280;57313;47.040;15.498;2022-10-31T13:12:16;97318.91;;;17.64;100.00
61037;BME280;57313;47.040;15.498;2022-10-31T13:14:49;97316.25;;;17.64;100.00